createdAt,value
2018-11-07T00:00:35.293Z,9.40
2018-11-07T00:02:37.312Z,9.40
2018-11-07T00:04:39.318Z,9.40
2018-11-07T00:06:41.314Z,9.40
2018-11-07T00:08:43.318Z,9.40
2018-11-07T00:10:45.302Z,9.40
2018-11-07T00:12:47.301Z,9.30
2018-11-07T00:14:49.298Z,9.30
2018-11-07T00:16:51.292Z,9.30
2018-11-07T00:18:53.294Z,9.30
2018-11-07T00:20:55.272Z,9.30
2018-11-07T00:22:57.289Z,9.30
2018-11-07T00:24:59.282Z,9.20
2018-11-07T00:27:01.273Z,9.20
2018-11-07T00:29:03.274Z,9.20
2018-11-07T00:31:05.270Z,9.20
2018-11-07T00:33:07.267Z,9.20
2018-11-07T00:35:10.342Z,9.20
2018-11-07T00:37:12.174Z,9.20
2018-11-07T00:39:14.206Z,9.20
2018-11-07T00:41:16.206Z,9.20
2018-11-07T00:43:18.205Z,9.20
2018-11-07T00:45:20.193Z,9.20
2018-11-07T00:47:22.226Z,9.10
2018-11-07T00:49:24.234Z,9.10
2018-11-07T00:51:26.230Z,9.10
2018-11-07T00:53:28.230Z,9.00
2018-11-07T00:55:30.234Z,9.00
2018-11-07T00:57:32.230Z,8.90
2018-11-07T00:59:34.225Z,8.90
2018-11-07T01:01:36.227Z,8.90
2018-11-07T01:03:38.229Z,8.90
2018-11-07T01:05:40.221Z,8.90
2018-11-07T01:07:43.272Z,8.90
2018-11-07T01:09:45.261Z,8.90
2018-11-07T01:11:47.265Z,8.90
2018-11-07T01:13:49.268Z,8.90
2018-11-07T01:15:51.266Z,8.90
2018-11-07T01:17:53.278Z,8.90
2018-11-07T01:19:55.274Z,8.90
2018-11-07T01:21:57.275Z,8.80
2018-11-07T01:23:59.281Z,8.70
2018-11-07T01:26:01.281Z,8.70
2018-11-07T01:28:03.286Z,8.70
2018-11-07T01:30:07.297Z,8.70
2018-11-07T01:32:09.291Z,8.70
2018-11-07T01:34:11.295Z,8.80
2018-11-07T01:36:13.293Z,8.70
2018-11-07T01:38:15.302Z,8.70
2018-11-07T01:40:17.297Z,8.70
2018-11-07T01:42:19.307Z,8.70
2018-11-07T01:44:21.430Z,8.70
2018-11-07T01:46:23.425Z,8.80
2018-11-07T01:48:25.421Z,8.90
2018-11-07T01:50:27.417Z,8.90
2018-11-07T01:52:29.410Z,8.90
2018-11-07T01:54:31.421Z,8.90
2018-11-07T01:56:33.401Z,8.90
2018-11-07T01:58:35.401Z,8.90
2018-11-07T02:00:37.414Z,8.90
2018-11-07T02:02:40.133Z,8.80
2018-11-07T02:04:42.139Z,8.70
2018-11-07T02:06:44.145Z,8.70
2018-11-07T02:08:46.154Z,8.60
2018-11-07T02:10:48.148Z,8.60
2018-11-07T02:12:50.142Z,8.60
2018-11-07T02:14:52.137Z,8.60
2018-11-07T02:16:54.130Z,8.60
2018-11-07T02:18:56.135Z,8.70
2018-11-07T02:20:58.129Z,8.60
2018-11-07T02:23:00.123Z,8.70
2018-11-07T02:25:02.149Z,8.70
2018-11-07T02:27:04.298Z,8.80
2018-11-07T02:29:09.013Z,8.80
2018-11-07T02:31:11.021Z,8.80
2018-11-07T02:33:13.009Z,8.80
2018-11-07T02:35:15.014Z,8.80
2018-11-07T02:37:17.013Z,8.90
2018-11-07T02:39:19.027Z,8.80
2018-11-07T02:41:21.034Z,8.80
2018-11-07T02:43:23.035Z,8.80
2018-11-07T02:45:25.025Z,8.80
2018-11-07T02:47:27.049Z,8.80
2018-11-07T02:49:29.052Z,8.80
2018-11-07T02:51:31.074Z,8.80
2018-11-07T02:53:33.119Z,8.80
2018-11-07T02:55:35.085Z,8.80
2018-11-07T02:57:37.311Z,8.70
2018-11-07T02:59:39.323Z,8.70
2018-11-07T03:01:41.327Z,8.60
2018-11-07T03:03:43.350Z,8.60
2018-11-07T03:05:45.361Z,8.60
2018-11-07T03:07:47.372Z,8.60
2018-11-07T03:09:49.386Z,8.60
2018-11-07T03:11:51.381Z,8.60
2018-11-07T03:13:53.394Z,8.50
2018-11-07T03:15:55.398Z,8.50
2018-11-07T03:17:57.400Z,8.50
2018-11-07T03:19:59.489Z,8.40
2018-11-07T03:22:01.495Z,8.40
2018-11-07T03:24:03.502Z,8.30
2018-11-07T03:26:05.504Z,8.30
2018-11-07T03:28:07.504Z,8.20
2018-11-07T03:30:09.932Z,8.10
2018-11-07T03:32:11.933Z,8.00
2018-11-07T03:34:13.930Z,8.00
2018-11-07T03:36:15.937Z,8.00
2018-11-07T03:38:17.931Z,8.00
2018-11-07T03:40:19.936Z,8.10
2018-11-07T03:42:21.978Z,8.00
2018-11-07T03:44:23.988Z,8.00
2018-11-07T03:46:26.009Z,8.00
2018-11-07T03:48:31.001Z,8.00
2018-11-07T03:50:33.005Z,8.00
2018-11-07T03:52:35.006Z,8.00
2018-11-07T03:54:37.011Z,7.90
2018-11-07T03:56:39.016Z,7.90
2018-11-07T03:58:41.013Z,7.90
2018-11-07T04:00:43.024Z,7.80
2018-11-07T04:02:45.030Z,7.80
2018-11-07T04:04:47.054Z,7.70
2018-11-07T04:06:49.054Z,7.70
2018-11-07T04:08:51.058Z,7.60
2018-11-07T04:10:53.061Z,7.70
2018-11-07T04:12:55.098Z,7.60
2018-11-07T04:14:57.097Z,7.60
2018-11-07T04:16:59.104Z,7.60
2018-11-07T04:19:01.103Z,7.60
2018-11-07T04:21:03.124Z,7.60
2018-11-07T04:23:05.234Z,7.60
2018-11-07T04:25:07.809Z,7.60
2018-11-07T04:27:09.797Z,7.60
2018-11-07T04:29:11.811Z,7.50
2018-11-07T04:31:13.819Z,7.50
2018-11-07T04:33:15.835Z,7.40
2018-11-07T04:35:17.846Z,7.40
2018-11-07T04:37:19.845Z,7.40
2018-11-07T04:39:21.858Z,7.30
2018-11-07T04:41:23.986Z,7.30
2018-11-07T04:43:25.989Z,7.30
2018-11-07T04:45:27.989Z,7.30
2018-11-07T04:47:30.062Z,7.30
2018-11-07T04:49:32.057Z,7.30
2018-11-07T04:51:34.070Z,7.30
2018-11-07T04:53:36.119Z,7.30
2018-11-07T04:55:38.138Z,7.30
2018-11-07T04:57:40.148Z,7.40
2018-11-07T04:59:42.154Z,7.40
2018-11-07T05:01:44.189Z,7.50
2018-11-07T05:03:46.194Z,7.50
2018-11-07T05:05:48.184Z,7.60
2018-11-07T05:07:50.239Z,7.60
2018-11-07T05:09:52.204Z,7.60
2018-11-07T05:11:54.201Z,7.60
2018-11-07T05:13:56.201Z,7.60
2018-11-07T05:15:58.220Z,7.50
2018-11-07T05:18:00.221Z,7.50
2018-11-07T05:20:02.226Z,7.50
2018-11-07T05:22:04.247Z,7.50
2018-11-07T05:24:06.247Z,7.50
2018-11-07T05:26:08.301Z,7.50
2018-11-07T05:28:10.238Z,7.50
2018-11-07T05:30:12.237Z,7.50
2018-11-07T05:32:14.237Z,7.50
2018-11-07T05:34:16.233Z,7.60
2018-11-07T05:36:18.229Z,7.50
2018-11-07T05:38:20.246Z,7.50
2018-11-07T05:40:22.250Z,7.50
2018-11-07T05:42:24.266Z,7.50
2018-11-07T05:44:26.278Z,7.40
2018-11-07T05:46:28.281Z,7.40
2018-11-07T05:48:30.281Z,7.40
2018-11-07T05:50:32.282Z,7.30
2018-11-07T05:52:34.388Z,7.30
2018-11-07T05:54:36.385Z,7.20
2018-11-07T05:56:38.434Z,7.20
2018-11-07T05:58:40.438Z,7.30
2018-11-07T06:00:42.438Z,7.30
2018-11-07T06:02:44.449Z,7.30
2018-11-07T06:04:46.453Z,7.50
2018-11-07T06:06:48.467Z,7.40
2018-11-07T06:08:50.465Z,7.70
2018-11-07T06:10:52.474Z,7.70
2018-11-07T06:12:54.490Z,7.80
2018-11-07T06:14:56.501Z,7.90
2018-11-07T06:16:58.501Z,7.90
2018-11-07T06:19:00.514Z,7.80
2018-11-07T06:21:02.546Z,8.00
2018-11-07T06:23:04.638Z,8.00
2018-11-07T06:25:06.849Z,8.00
2018-11-07T06:27:08.842Z,8.00
2018-11-07T06:29:11.365Z,8.10
2018-11-07T06:31:13.374Z,8.10
2018-11-07T06:33:15.398Z,8.00
2018-11-07T06:35:17.410Z,8.00
2018-11-07T06:37:19.995Z,7.90
2018-11-07T06:39:22.010Z,7.90
2018-11-07T06:41:24.015Z,7.90
2018-11-07T06:43:26.014Z,7.90
2018-11-07T06:45:28.014Z,7.80
2018-11-07T06:47:30.022Z,7.80
2018-11-07T06:49:32.022Z,7.80
2018-11-07T06:51:34.025Z,7.80
2018-11-07T06:53:36.029Z,7.80
2018-11-07T06:55:38.053Z,7.80
2018-11-07T06:57:40.059Z,7.80
2018-11-07T06:59:42.062Z,7.90
2018-11-07T07:01:44.061Z,8.00
2018-11-07T07:03:46.063Z,8.40
2018-11-07T07:05:48.071Z,8.40
2018-11-07T07:07:50.093Z,8.40
2018-11-07T07:09:52.103Z,8.50
2018-11-07T07:11:54.112Z,8.70
2018-11-07T07:13:56.110Z,9.50
2018-11-07T07:15:58.094Z,10.20
2018-11-07T07:18:00.161Z,10.80
2018-11-07T07:20:02.116Z,11.40
2018-11-07T07:22:04.576Z,11.90
2018-11-07T07:24:06.570Z,12.30
2018-11-07T07:26:08.699Z,12.80
2018-11-07T07:28:10.701Z,13.00
2018-11-07T07:30:13.916Z,13.50
2018-11-07T07:32:15.850Z,13.70
2018-11-07T07:34:17.853Z,14.10
2018-11-07T07:36:19.845Z,14.10
2018-11-07T07:38:21.841Z,14.40
2018-11-07T07:40:23.839Z,14.50
2018-11-07T07:42:25.844Z,14.80
2018-11-07T07:44:27.842Z,15.00
2018-11-07T07:46:29.938Z,15.20
2018-11-07T07:48:31.937Z,15.30
2018-11-07T07:50:33.933Z,14.90
2018-11-07T07:52:35.937Z,14.50
2018-11-07T07:54:37.926Z,14.30
2018-11-07T07:56:39.925Z,13.90
2018-11-07T07:58:41.934Z,13.50
2018-11-07T08:00:44.005Z,13.20
2018-11-07T08:02:50.368Z,13.00
2018-11-07T08:04:52.375Z,12.80
2018-11-07T08:06:54.379Z,12.60
2018-11-07T08:08:56.367Z,12.40
2018-11-07T08:10:58.370Z,12.20
2018-11-07T08:13:00.435Z,12.00
2018-11-07T08:15:02.567Z,11.80
2018-11-07T08:17:04.631Z,11.80
2018-11-07T08:19:07.478Z,11.50
2018-11-07T08:21:09.522Z,11.50
2018-11-07T08:23:11.506Z,11.40
2018-11-07T08:25:13.505Z,11.30
2018-11-07T08:27:15.503Z,11.40
2018-11-07T08:29:17.515Z,11.30
2018-11-07T08:31:19.522Z,11.20
2018-11-07T08:33:21.530Z,11.20
2018-11-07T08:35:23.529Z,11.20
2018-11-07T08:37:25.534Z,11.30
2018-11-07T08:39:27.545Z,11.40
2018-11-07T08:41:29.541Z,11.50
2018-11-07T08:43:31.554Z,11.50
2018-11-07T08:45:33.566Z,11.70
2018-11-07T08:47:35.565Z,11.70
2018-11-07T08:49:37.715Z,11.80
2018-11-07T08:51:39.709Z,12.00
2018-11-07T08:53:41.773Z,12.00
2018-11-07T08:55:43.772Z,12.50
2018-11-07T08:57:45.777Z,13.00
2018-11-07T08:59:47.770Z,13.70
2018-11-07T09:01:49.766Z,14.40
2018-11-07T09:03:51.766Z,14.90
2018-11-07T09:05:53.767Z,15.60
2018-11-07T09:07:55.775Z,16.30
2018-11-07T09:09:57.752Z,16.40
2018-11-07T09:11:59.895Z,17.00
2018-11-07T09:14:01.852Z,16.80
2018-11-07T09:16:04.012Z,17.00
2018-11-07T09:18:06.016Z,17.40
2018-11-07T09:20:09.771Z,18.00
2018-11-07T09:22:11.773Z,18.20
2018-11-07T09:24:13.821Z,19.00
2018-11-07T09:26:15.780Z,19.10
2018-11-07T09:28:17.793Z,19.80
2018-11-07T09:30:21.798Z,19.00
2018-11-07T09:32:23.776Z,19.40
2018-11-07T09:34:25.785Z,19.20
2018-11-07T09:36:27.774Z,19.80
2018-11-07T09:38:29.792Z,19.10
2018-11-07T09:40:31.803Z,20.20
2018-11-07T09:42:33.801Z,20.60
2018-11-07T09:44:35.813Z,20.20
2018-11-07T09:46:37.801Z,19.20
2018-11-07T09:48:39.798Z,19.80
2018-11-07T09:50:41.803Z,19.10
2018-11-07T09:52:44.065Z,19.00
2018-11-07T09:54:46.066Z,19.30
2018-11-07T09:56:48.078Z,18.50
2018-11-07T09:58:50.081Z,18.90
2018-11-07T10:00:52.091Z,19.00
2018-11-07T10:02:54.098Z,19.80
2018-11-07T10:04:56.133Z,18.90
2018-11-07T10:06:58.130Z,19.70
2018-11-07T10:09:00.261Z,19.50
2018-11-07T10:11:02.315Z,19.90
2018-11-07T10:13:04.311Z,19.50
2018-11-07T10:15:07.001Z,19.40
2018-11-07T10:17:09.001Z,19.70
2018-11-07T10:19:11.312Z,18.20
2018-11-07T10:21:13.322Z,17.50
2018-11-07T10:23:16.221Z,18.10
2018-11-07T10:25:18.481Z,18.10
2018-11-07T10:27:20.996Z,18.50
2018-11-07T10:29:23.116Z,18.80
2018-11-07T10:31:24.774Z,17.70
2018-11-07T10:33:26.780Z,17.00
2018-11-07T10:35:28.779Z,17.20
2018-11-07T10:37:32.465Z,17.60
2018-11-07T10:39:32.830Z,17.70
2018-11-07T10:41:34.842Z,18.20
2018-11-07T10:43:36.846Z,18.80
2018-11-07T10:45:38.850Z,18.70
2018-11-07T10:47:41.458Z,18.60
2018-11-07T10:49:43.457Z,18.90
2018-11-07T10:51:45.502Z,19.10
2018-11-07T10:53:47.458Z,19.20
2018-11-07T10:55:49.461Z,19.20
2018-11-07T10:57:51.460Z,19.70
2018-11-07T10:59:53.467Z,19.10
2018-11-07T11:02:02.394Z,18.70
2018-11-07T11:04:04.532Z,19.80
2018-11-07T11:06:06.539Z,20.30
2018-11-07T11:08:08.928Z,21.10
2018-11-07T11:10:11.613Z,21.50
2018-11-07T11:12:13.619Z,21.70
2018-11-07T11:14:15.669Z,21.50
2018-11-07T11:16:17.670Z,22.10
2018-11-07T11:18:19.786Z,20.90
2018-11-07T11:20:21.806Z,20.80
2018-11-07T11:22:23.807Z,20.80
2018-11-07T11:24:25.805Z,21.00
2018-11-07T11:26:27.785Z,21.70
2018-11-07T11:28:29.777Z,21.20
2018-11-07T11:30:31.789Z,20.80
2018-11-07T11:32:33.787Z,21.60
2018-11-07T11:34:35.922Z,21.60
2018-11-07T11:36:37.802Z,21.80
2018-11-07T11:38:39.842Z,21.70
2018-11-07T11:40:41.913Z,21.90
2018-11-07T11:42:44.498Z,21.90
2018-11-07T11:44:46.501Z,22.20
2018-11-07T11:46:48.645Z,22.70
2018-11-07T11:48:50.637Z,22.80
2018-11-07T11:50:52.646Z,21.70
2018-11-07T11:52:54.637Z,21.70
2018-11-07T11:54:56.637Z,21.50
2018-11-07T11:56:58.638Z,23.00
2018-11-07T11:59:00.752Z,22.10
2018-11-07T12:01:02.646Z,22.90
2018-11-07T12:03:04.674Z,22.90
2018-11-07T12:05:07.831Z,21.70
2018-11-07T12:07:09.869Z,23.10
2018-11-07T12:09:11.864Z,22.90
2018-11-07T12:11:13.865Z,22.10
2018-11-07T12:13:15.920Z,23.20
2018-11-07T12:15:18.879Z,22.80
2018-11-07T12:17:20.833Z,23.50
2018-11-07T12:19:22.822Z,24.30
2018-11-07T12:21:24.889Z,24.10
2018-11-07T12:23:26.818Z,22.70
2018-11-07T12:25:28.818Z,23.40
2018-11-07T12:27:30.845Z,23.90
2018-11-07T12:29:32.842Z,23.80
2018-11-07T12:31:34.849Z,22.90
2018-11-07T12:33:36.837Z,23.50
2018-11-07T12:35:38.838Z,23.90
2018-11-07T12:37:41.174Z,24.60
2018-11-07T12:39:43.174Z,23.80
2018-11-07T12:41:45.185Z,24.20
2018-11-07T12:43:47.183Z,23.40
2018-11-07T12:45:49.198Z,23.80
2018-11-07T12:47:51.197Z,22.50
2018-11-07T12:49:53.256Z,23.40
2018-11-07T12:51:55.227Z,22.30
2018-11-07T12:53:57.229Z,22.90
2018-11-07T12:55:59.241Z,22.90
2018-11-07T12:58:01.356Z,22.80
2018-11-07T13:00:03.529Z,23.40
2018-11-07T13:02:05.542Z,22.70
2018-11-07T13:04:07.541Z,22.70
2018-11-07T13:06:09.545Z,22.50
2018-11-07T13:08:11.543Z,22.90
2018-11-07T13:10:14.667Z,22.30
2018-11-07T13:12:16.682Z,21.70
2018-11-07T13:14:18.680Z,22.80
2018-11-07T13:16:20.688Z,22.80
2018-11-07T13:18:22.690Z,21.30
2018-11-07T13:20:25.541Z,21.70
2018-11-07T13:22:27.630Z,21.90
2018-11-07T13:24:29.550Z,22.40
2018-11-07T13:26:31.549Z,22.70
2018-11-07T13:28:33.596Z,22.60
2018-11-07T13:30:35.579Z,22.30
2018-11-07T13:32:37.841Z,22.70
2018-11-07T13:34:39.834Z,22.60
2018-11-07T13:36:42.042Z,22.30
2018-11-07T13:38:44.244Z,22.10
2018-11-07T13:40:46.065Z,22.00
2018-11-07T13:42:48.026Z,22.50
2018-11-07T13:44:50.026Z,22.50
2018-11-07T13:46:52.030Z,22.20
2018-11-07T13:48:54.046Z,22.20
2018-11-07T13:50:56.053Z,22.20
2018-11-07T13:52:58.046Z,22.60
2018-11-07T13:55:00.021Z,22.20
2018-11-07T13:57:02.005Z,23.20
2018-11-07T13:59:04.263Z,23.20
2018-11-07T14:01:06.270Z,23.10
2018-11-07T14:03:08.269Z,22.20
2018-11-07T14:05:10.990Z,22.50
2018-11-07T14:07:12.960Z,23.00
2018-11-07T14:09:14.966Z,23.00
2018-11-07T14:11:16.958Z,23.30
2018-11-07T14:13:18.974Z,23.40
2018-11-07T14:15:21.139Z,23.20
2018-11-07T14:17:23.185Z,23.40
2018-11-07T14:19:25.193Z,23.10
2018-11-07T14:21:27.193Z,23.00
2018-11-07T14:23:29.245Z,23.00
2018-11-07T14:25:31.246Z,23.10
2018-11-07T14:27:33.289Z,23.30
2018-11-07T14:29:35.300Z,23.30
2018-11-07T14:31:37.341Z,23.30
2018-11-07T14:33:39.602Z,23.40
2018-11-07T14:35:41.610Z,23.50
2018-11-07T14:37:43.631Z,23.30
2018-11-07T14:39:45.647Z,23.40
2018-11-07T14:41:47.679Z,23.30
2018-11-07T14:43:49.753Z,23.20
2018-11-07T14:45:51.722Z,22.80
2018-11-07T14:47:53.801Z,22.10
2018-11-07T14:49:55.746Z,21.50
2018-11-07T14:51:57.751Z,21.00
2018-11-07T14:53:59.750Z,20.80
2018-11-07T14:56:01.761Z,20.40
2018-11-07T14:58:03.766Z,20.90
2018-11-07T15:00:09.271Z,20.60
2018-11-07T15:02:13.453Z,20.60
2018-11-07T15:04:15.462Z,20.10
2018-11-07T15:06:17.474Z,20.00
2018-11-07T15:08:19.544Z,20.20
2018-11-07T15:10:21.495Z,19.70
2018-11-07T15:12:23.506Z,20.10
2018-11-07T15:14:25.506Z,20.10
2018-11-07T15:16:27.498Z,20.00
2018-11-07T15:18:29.510Z,19.30
2018-11-07T15:20:31.514Z,19.30
2018-11-07T15:22:33.518Z,19.40
2018-11-07T15:24:35.510Z,18.70
2018-11-07T15:26:37.511Z,18.20
2018-11-07T15:28:39.527Z,17.60
2018-11-07T15:30:41.518Z,17.30
2018-11-07T15:32:43.888Z,16.80
2018-11-07T15:34:45.887Z,16.70
2018-11-07T15:36:47.887Z,16.30
2018-11-07T15:38:49.890Z,16.10
2018-11-07T15:40:51.894Z,15.80
2018-11-07T15:42:53.885Z,15.70
2018-11-07T15:44:55.922Z,15.60
2018-11-07T15:46:58.007Z,15.60
2018-11-07T15:48:59.992Z,15.30
2018-11-07T15:51:07.659Z,15.30
2018-11-07T15:53:09.670Z,15.20
2018-11-07T15:55:11.690Z,15.10
2018-11-07T15:57:13.681Z,15.10
2018-11-07T15:59:15.714Z,15.00
2018-11-07T16:01:17.714Z,14.90
2018-11-07T16:03:25.365Z,14.90
2018-11-07T16:05:27.362Z,14.80
2018-11-07T16:07:29.357Z,14.70
2018-11-07T16:09:31.370Z,14.70
2018-11-07T16:11:33.381Z,14.70
2018-11-07T16:13:35.406Z,14.60
2018-11-07T16:15:37.440Z,14.60
2018-11-07T16:17:39.858Z,14.50
2018-11-07T16:19:41.849Z,14.50
2018-11-07T16:21:43.850Z,14.40
2018-11-07T16:23:45.871Z,14.30
2018-11-07T16:25:47.882Z,14.40
2018-11-07T16:27:49.861Z,14.40
2018-11-07T16:29:51.866Z,14.30
2018-11-07T16:31:53.865Z,14.30
2018-11-07T16:33:56.549Z,14.10
2018-11-07T16:35:58.557Z,14.00
2018-11-07T16:38:00.679Z,13.90
2018-11-07T16:40:02.570Z,13.80
2018-11-07T16:42:04.583Z,13.90
2018-11-07T16:44:06.593Z,13.80
2018-11-07T16:46:08.585Z,13.70
2018-11-07T16:48:10.605Z,13.60
2018-11-07T16:50:13.782Z,13.60
2018-11-07T16:52:15.790Z,13.60
2018-11-07T16:54:19.861Z,13.60
2018-11-07T16:56:21.845Z,13.60
2018-11-07T16:58:23.857Z,13.70
2018-11-07T17:00:25.851Z,13.60
2018-11-07T17:02:27.875Z,13.70
2018-11-07T17:04:29.941Z,13.70
2018-11-07T17:06:31.869Z,13.60
2018-11-07T17:08:33.902Z,13.60
2018-11-07T17:10:35.903Z,13.60
2018-11-07T17:12:37.893Z,13.60
2018-11-07T17:14:39.902Z,13.60
2018-11-07T17:16:41.903Z,13.50
2018-11-07T17:18:43.898Z,13.50
2018-11-07T17:20:45.947Z,13.60
2018-11-07T17:22:47.902Z,13.50
2018-11-07T17:24:49.909Z,13.50
2018-11-07T17:26:51.969Z,13.50
2018-11-07T17:28:53.914Z,13.40
2018-11-07T17:30:55.922Z,13.40
2018-11-07T17:32:57.944Z,13.40
2018-11-07T17:34:59.926Z,13.40
2018-11-07T17:37:01.971Z,13.40
2018-11-07T17:39:06.437Z,13.30
2018-11-07T17:41:08.433Z,13.30
2018-11-07T17:43:10.429Z,13.30
2018-11-07T17:45:14.266Z,13.30
2018-11-07T17:47:16.248Z,13.30
2018-11-07T17:49:18.263Z,13.20
2018-11-07T17:51:20.266Z,13.10
2018-11-07T17:53:22.269Z,13.00
2018-11-07T17:55:24.291Z,12.80
2018-11-07T17:57:26.290Z,12.80
2018-11-07T17:59:28.304Z,12.60
2018-11-07T18:01:30.293Z,12.50
2018-11-07T18:03:32.294Z,12.50
2018-11-07T18:05:34.293Z,12.50
2018-11-07T18:07:36.832Z,12.50
2018-11-07T18:09:38.869Z,12.50
2018-11-07T18:11:40.825Z,12.50
2018-11-07T18:13:42.862Z,12.40
2018-11-07T18:15:44.822Z,12.40
2018-11-07T18:17:46.817Z,12.30
2018-11-07T18:19:48.821Z,12.20
2018-11-07T18:21:50.821Z,12.10
2018-11-07T18:23:52.820Z,12.10
2018-11-07T18:25:54.823Z,12.00
2018-11-07T18:27:56.825Z,12.00
2018-11-07T18:29:58.829Z,11.90
2018-11-07T18:32:00.900Z,11.80
2018-11-07T18:34:02.925Z,11.90
2018-11-07T18:36:04.930Z,11.90
2018-11-07T18:38:06.953Z,11.80
2018-11-07T18:40:10.505Z,11.70
2018-11-07T18:42:12.507Z,11.50
2018-11-07T18:44:14.565Z,11.50
2018-11-07T18:46:16.509Z,11.40
2018-11-07T18:48:18.507Z,11.30
2018-11-07T18:50:20.673Z,11.10
2018-11-07T18:52:22.518Z,11.10
2018-11-07T18:54:24.522Z,11.10
2018-11-07T18:56:26.525Z,11.10
2018-11-07T18:58:28.553Z,11.10
2018-11-07T19:00:30.536Z,11.00
2018-11-07T19:02:32.664Z,11.10
2018-11-07T19:06:42.555Z,11.00
2018-11-07T19:08:44.485Z,10.80
2018-11-07T19:10:46.486Z,10.80
2018-11-07T19:12:49.013Z,10.80
2018-11-07T19:14:51.058Z,10.90
2018-11-07T19:16:53.079Z,10.80
2018-11-07T19:18:56.504Z,10.70
2018-11-07T19:20:58.509Z,10.60
2018-11-07T19:23:00.555Z,10.60
2018-11-07T19:25:02.745Z,10.70
2018-11-07T19:27:05.142Z,10.70
2018-11-07T19:29:07.129Z,10.60
2018-11-07T19:31:09.121Z,10.70
2018-11-07T19:33:11.284Z,10.70
2018-11-07T19:35:14.278Z,10.60
2018-11-07T19:37:16.294Z,10.60
2018-11-07T19:39:18.309Z,10.50
2018-11-07T19:41:20.326Z,10.30
2018-11-07T19:43:22.329Z,10.40
2018-11-07T19:45:24.336Z,10.40
2018-11-07T19:47:26.353Z,10.40
2018-11-07T19:49:28.357Z,10.50
2018-11-07T19:51:30.562Z,10.50
2018-11-07T19:53:32.653Z,10.60
2018-11-07T19:55:34.665Z,10.60
2018-11-07T19:57:36.673Z,10.50
2018-11-07T19:59:38.818Z,10.40
2018-11-07T20:01:40.833Z,10.50
2018-11-07T20:03:42.886Z,10.50
2018-11-07T20:05:45.065Z,10.60
2018-11-07T20:07:47.070Z,10.50
2018-11-07T20:09:49.091Z,10.60
2018-11-07T20:11:51.101Z,10.50
2018-11-07T20:13:53.085Z,10.40
2018-11-07T20:15:55.094Z,10.40
2018-11-07T20:17:57.103Z,10.40
2018-11-07T20:19:59.106Z,10.30
2018-11-07T20:22:01.124Z,10.30
2018-11-07T20:24:03.342Z,10.30
2018-11-07T20:26:05.366Z,10.20
2018-11-07T20:28:07.422Z,10.10
2018-11-07T20:30:11.169Z,10.10
2018-11-07T20:32:13.170Z,10.10
2018-11-07T20:34:15.157Z,10.10
2018-11-07T20:36:17.270Z,10.10
2018-11-07T20:40:28.038Z,10.20
2018-11-07T20:42:30.075Z,10.20
2018-11-07T20:44:32.101Z,10.20
2018-11-07T20:46:34.113Z,10.20
2018-11-07T20:48:36.118Z,10.20
2018-11-07T20:50:38.122Z,10.20
2018-11-07T20:52:40.716Z,10.10
2018-11-07T20:54:42.736Z,10.10
2018-11-07T20:56:44.769Z,10.20
2018-11-07T20:58:46.781Z,10.20
2018-11-07T21:00:48.809Z,10.20
2018-11-07T21:02:51.005Z,10.20
2018-11-07T21:04:53.014Z,10.30
2018-11-07T21:06:55.110Z,10.30
2018-11-07T21:08:57.102Z,10.40
2018-11-07T21:10:59.128Z,10.40
2018-11-07T21:13:01.130Z,10.40
2018-11-07T21:15:03.480Z,10.30
2018-11-07T21:17:05.638Z,10.30
2018-11-07T21:19:07.649Z,10.20
2018-11-07T21:21:09.633Z,10.20
2018-11-07T21:23:11.642Z,10.20
2018-11-07T21:25:13.873Z,10.30
2018-11-07T21:27:15.902Z,10.30
2018-11-07T21:29:17.933Z,10.40
2018-11-07T21:31:19.966Z,10.30
2018-11-07T21:33:22.023Z,10.40
2018-11-07T21:35:23.990Z,10.40
2018-11-07T21:37:26.029Z,10.50
2018-11-07T21:39:28.034Z,10.40
2018-11-07T21:41:30.051Z,10.50
2018-11-07T21:43:32.108Z,10.50
2018-11-07T21:45:34.213Z,10.50
2018-11-07T21:47:36.353Z,10.50
2018-11-07T21:49:38.362Z,10.60
2018-11-07T21:51:40.390Z,10.50
2018-11-07T21:53:42.389Z,10.50
2018-11-07T21:55:44.376Z,10.50
2018-11-07T21:57:46.416Z,10.50
2018-11-07T21:59:48.430Z,10.50
2018-11-07T22:01:50.426Z,10.60
2018-11-07T22:03:52.445Z,10.60
2018-11-07T22:05:54.447Z,10.60
2018-11-07T22:07:56.444Z,10.70
2018-11-07T22:09:58.450Z,10.70
2018-11-07T22:12:00.451Z,10.80
2018-11-07T22:14:02.436Z,10.80
2018-11-07T22:16:04.722Z,10.90
2018-11-07T22:18:06.730Z,10.90
2018-11-07T22:20:10.471Z,11.00
2018-11-07T22:22:12.522Z,11.00
2018-11-07T22:24:14.728Z,11.20
2018-11-07T22:26:16.633Z,11.30
2018-11-07T22:28:18.674Z,11.40
2018-11-07T22:30:20.669Z,11.50
2018-11-07T22:32:22.698Z,11.80
2018-11-07T22:34:24.725Z,11.70
2018-11-07T22:36:26.717Z,11.90
2018-11-07T22:38:28.722Z,11.80
2018-11-07T22:40:30.725Z,12.00
2018-11-07T22:42:32.733Z,11.90
2018-11-07T22:44:34.733Z,11.90
2018-11-07T22:46:36.726Z,11.90
2018-11-07T22:48:38.721Z,11.90
2018-11-07T22:50:40.718Z,12.00
2018-11-07T22:52:43.545Z,11.90
2018-11-07T22:54:45.551Z,12.00
2018-11-07T22:56:47.555Z,11.90
2018-11-07T22:58:49.562Z,11.90
2018-11-07T23:01:02.078Z,12.10
2018-11-07T23:03:04.423Z,12.00
2018-11-07T23:05:06.431Z,12.00
2018-11-07T23:07:08.438Z,12.10
2018-11-07T23:09:12.423Z,12.10
2018-11-07T23:11:14.423Z,12.00
2018-11-07T23:13:16.437Z,12.00
2018-11-07T23:15:24.110Z,12.00
2018-11-07T23:17:26.118Z,12.10
2018-11-07T23:19:28.196Z,12.00
2018-11-07T23:21:30.136Z,12.00
2018-11-07T23:23:33.069Z,12.00
2018-11-07T23:25:35.006Z,12.00
2018-11-07T23:27:37.014Z,12.00
2018-11-07T23:29:39.022Z,12.00
2018-11-07T23:31:41.022Z,12.00
2018-11-07T23:33:43.027Z,12.00
2018-11-07T23:35:45.027Z,12.00
2018-11-07T23:37:47.054Z,11.90
2018-11-07T23:39:49.069Z,11.90
2018-11-07T23:41:51.074Z,11.90
2018-11-07T23:43:53.077Z,11.90
2018-11-07T23:45:55.078Z,11.90
2018-11-07T23:47:57.077Z,11.90
2018-11-07T23:49:59.269Z,11.80
2018-11-07T23:52:01.262Z,11.80
2018-11-07T23:54:03.290Z,11.80
2018-11-07T23:56:05.335Z,11.80
2018-11-07T23:58:07.347Z,11.80
